sensor_id;sensor_type;location;lat;lon;timestamp;P1;durP1;ratioP1;P2;durP2;ratioP2
6243;SDS011;3155;49.940;8.450;2023-03-22T00:01:40;2.08;;;1.63;;
6243;SDS011;3155;49.940;8.450;2023-03-22T00:04:10;1.13;;;1.10;;
6243;SDS011;3155;49.940;8.450;2023-03-22T00:06:37;0.80;;;0.80;;
6243;SDS011;3155;49.940;8.450;2023-03-22T00:09:04;0.93;;;0.93;;
6243;SDS011;3155;49.940;8.450;2023-03-22T00:11:32;1.63;;;0.93;;
6243;SDS011;3155;49.940;8.450;2023-03-22T00:13:59;1.23;;;1.23;;
6243;SDS011;3155;49.940;8.450;2023-03-22T00:16:29;1.50;;;1.40;;
6243;SDS011;3155;49.940;8.450;2023-03-22T00:18:56;0.95;;;0.95;;
6243;SDS011;3155;49.940;8.450;2023-03-22T00:21:23;1.38;;;1.38;;
6243;SDS011;3155;49.940;8.450;2023-03-22T00:23:53;1.70;;;1.23;;
6243;SDS011;3155;49.940;8.450;2023-03-22T00:26:20;1.70;;;1.60;;
6243;SDS011;3155;49.940;8.450;2023-03-22T00:28:47;1.33;;;1.23;;
6243;SDS011;3155;49.940;8.450;2023-03-22T00:31:14;1.25;;;1.23;;
6243;SDS011;3155;49.940;8.450;2023-03-22T00:33:41;1.95;;;1.80;;
6243;SDS011;3155;49.940;8.450;2023-03-22T00:36:09;3.63;;;2.10;;
6243;SDS011;3155;49.940;8.450;2023-03-22T00:38:39;3.47;;;2.28;;
6243;SDS011;3155;49.940;8.450;2023-03-22T00:41:13;1.97;;;1.67;;
6243;SDS011;3155;49.940;8.450;2023-03-22T00:43:41;1.38;;;1.38;;
6243;SDS011;3155;49.940;8.450;2023-03-22T00:46:08;2.58;;;1.70;;
6243;SDS011;3155;49.940;8.450;2023-03-22T00:48:36;1.35;;;1.35;;
6243;SDS011;3155;49.940;8.450;2023-03-22T00:51:04;1.67;;;1.58;;
6243;SDS011;3155;49.940;8.450;2023-03-22T00:53:31;2.17;;;1.98;;
6243;SDS011;3155;49.940;8.450;2023-03-22T00:55:58;1.42;;;1.42;;
6243;SDS011;3155;49.940;8.450;2023-03-22T00:58:25;1.67;;;1.53;;
6243;SDS011;3155;49.940;8.450;2023-03-22T01:00:52;1.10;;;1.10;;
6243;SDS011;3155;49.940;8.450;2023-03-22T01:03:19;1.63;;;1.52;;
6243;SDS011;3155;49.940;8.450;2023-03-22T01:05:50;1.38;;;1.33;;
6243;SDS011;3155;49.940;8.450;2023-03-22T01:08:20;1.17;;;1.17;;
6243;SDS011;3155;49.940;8.450;2023-03-22T01:10:48;1.80;;;1.70;;
6243;SDS011;3155;49.940;8.450;2023-03-22T01:13:15;2.00;;;1.10;;
6243;SDS011;3155;49.940;8.450;2023-03-22T01:15:48;0.98;;;0.93;;
6243;SDS011;3155;49.940;8.450;2023-03-22T01:18:19;0.90;;;0.90;;
6243;SDS011;3155;49.940;8.450;2023-03-22T01:20:46;1.38;;;1.30;;
6243;SDS011;3155;49.940;8.450;2023-03-22T01:23:13;1.63;;;1.33;;
6243;SDS011;3155;49.940;8.450;2023-03-22T01:25:40;1.20;;;1.17;;
6243;SDS011;3155;49.940;8.450;2023-03-22T01:28:18;1.88;;;1.77;;
6243;SDS011;3155;49.940;8.450;2023-03-22T01:30:45;2.63;;;1.48;;
6243;SDS011;3155;49.940;8.450;2023-03-22T01:33:13;1.65;;;1.35;;
6243;SDS011;3155;49.940;8.450;2023-03-22T01:35:40;1.60;;;1.50;;
6243;SDS011;3155;49.940;8.450;2023-03-22T01:38:07;1.95;;;1.40;;
6243;SDS011;3155;49.940;8.450;2023-03-22T01:40:34;1.33;;;1.23;;
6243;SDS011;3155;49.940;8.450;2023-03-22T01:43:09;1.15;;;1.13;;
6243;SDS011;3155;49.940;8.450;2023-03-22T01:45:55;1.70;;;1.60;;
6243;SDS011;3155;49.940;8.450;2023-03-22T01:48:32;0.77;;;0.77;;
6243;SDS011;3155;49.940;8.450;2023-03-22T01:51:16;1.15;;;1.15;;
6243;SDS011;3155;49.940;8.450;2023-03-22T01:53:51;1.50;;;1.40;;
6243;SDS011;3155;49.940;8.450;2023-03-22T01:56:21;0.68;;;0.68;;
6243;SDS011;3155;49.940;8.450;2023-03-22T01:58:49;1.00;;;1.00;;
6243;SDS011;3155;49.940;8.450;2023-03-22T02:01:18;0.93;;;0.93;;
6243;SDS011;3155;49.940;8.450;2023-03-22T02:03:50;1.83;;;1.65;;
6243;SDS011;3155;49.940;8.450;2023-03-22T02:06:18;1.33;;;1.33;;
6243;SDS011;3155;49.940;8.450;2023-03-22T02:08:49;1.70;;;1.20;;
6243;SDS011;3155;49.940;8.450;2023-03-22T02:11:22;1.95;;;1.45;;
6243;SDS011;3155;49.940;8.450;2023-03-22T02:25:35;1.20;;;1.20;;
6243;SDS011;3155;49.940;8.450;2023-03-22T02:41:11;1.55;;;1.45;;
6243;SDS011;3155;49.940;8.450;2023-03-22T02:46:21;1.30;;;1.20;;
6243;SDS011;3155;49.940;8.450;2023-03-22T02:49:03;0.80;;;0.60;;
6243;SDS011;3155;49.940;8.450;2023-03-22T02:51:39;1.02;;;1.02;;
6243;SDS011;3155;49.940;8.450;2023-03-22T02:56:54;1.20;;;1.10;;
6243;SDS011;3155;49.940;8.450;2023-03-22T02:59:24;1.45;;;1.40;;
6243;SDS011;3155;49.940;8.450;2023-03-22T03:01:57;1.60;;;1.43;;
6243;SDS011;3155;49.940;8.450;2023-03-22T03:04:29;1.50;;;1.40;;
6243;SDS011;3155;49.940;8.450;2023-03-22T03:06:59;0.88;;;0.88;;
6243;SDS011;3155;49.940;8.450;2023-03-22T03:09:27;1.20;;;1.15;;
6243;SDS011;3155;49.940;8.450;2023-03-22T03:11:57;1.65;;;1.15;;
6243;SDS011;3155;49.940;8.450;2023-03-22T03:14:26;0.45;;;0.45;;
6243;SDS011;3155;49.940;8.450;2023-03-22T03:17:03;0.75;;;0.75;;
6243;SDS011;3155;49.940;8.450;2023-03-22T03:19:35;1.17;;;1.17;;
6243;SDS011;3155;49.940;8.450;2023-03-22T03:27:49;1.08;;;0.88;;
6243;SDS011;3155;49.940;8.450;2023-03-22T03:30:33;1.38;;;1.00;;
6243;SDS011;3155;49.940;8.450;2023-03-22T03:33:05;1.35;;;0.93;;
6243;SDS011;3155;49.940;8.450;2023-03-22T03:35:38;1.58;;;0.98;;
6243;SDS011;3155;49.940;8.450;2023-03-22T03:38:08;2.40;;;1.25;;
6243;SDS011;3155;49.940;8.450;2023-03-22T03:40:37;1.25;;;0.77;;
6243;SDS011;3155;49.940;8.450;2023-03-22T03:43:08;1.00;;;1.00;;
6243;SDS011;3155;49.940;8.450;2023-03-22T03:45:36;1.30;;;1.13;;
6243;SDS011;3155;49.940;8.450;2023-03-22T03:48:05;2.25;;;1.33;;
6243;SDS011;3155;49.940;8.450;2023-03-22T03:50:34;1.13;;;1.10;;
6243;SDS011;3155;49.940;8.450;2023-03-22T03:53:01;0.50;;;0.50;;
6243;SDS011;3155;49.940;8.450;2023-03-22T03:55:28;1.17;;;1.08;;
6243;SDS011;3155;49.940;8.450;2023-03-22T03:57:56;0.63;;;0.63;;
6243;SDS011;3155;49.940;8.450;2023-03-22T04:00:23;1.00;;;1.00;;
6243;SDS011;3155;49.940;8.450;2023-03-22T04:02:53;1.50;;;1.40;;
6243;SDS011;3155;49.940;8.450;2023-03-22T04:05:20;0.90;;;0.88;;
6243;SDS011;3155;49.940;8.450;2023-03-22T04:07:47;1.05;;;1.05;;
6243;SDS011;3155;49.940;8.450;2023-03-22T04:10:14;0.70;;;0.70;;
6243;SDS011;3155;49.940;8.450;2023-03-22T04:12:40;3.35;;;1.40;;
6243;SDS011;3155;49.940;8.450;2023-03-22T04:15:07;1.65;;;0.90;;
6243;SDS011;3155;49.940;8.450;2023-03-22T04:17:35;0.93;;;0.93;;
6243;SDS011;3155;49.940;8.450;2023-03-22T04:20:03;1.05;;;1.02;;
6243;SDS011;3155;49.940;8.450;2023-03-22T04:22:31;1.00;;;1.00;;
6243;SDS011;3155;49.940;8.450;2023-03-22T04:25:00;1.27;;;0.85;;
6243;SDS011;3155;49.940;8.450;2023-03-22T04:27:29;0.77;;;0.77;;
6243;SDS011;3155;49.940;8.450;2023-03-22T04:29:56;1.27;;;1.17;;
6243;SDS011;3155;49.940;8.450;2023-03-22T04:32:23;3.00;;;1.13;;
6243;SDS011;3155;49.940;8.450;2023-03-22T04:34:53;1.17;;;1.17;;
6243;SDS011;3155;49.940;8.450;2023-03-22T04:37:19;1.02;;;0.95;;
6243;SDS011;3155;49.940;8.450;2023-03-22T04:39:49;0.80;;;0.80;;
6243;SDS011;3155;49.940;8.450;2023-03-22T04:42:16;4.10;;;1.00;;
6243;SDS011;3155;49.940;8.450;2023-03-22T04:44:43;1.33;;;1.33;;
6243;SDS011;3155;49.940;8.450;2023-03-22T04:47:09;1.40;;;1.30;;
6243;SDS011;3155;49.940;8.450;2023-03-22T04:49:36;1.10;;;0.60;;
6243;SDS011;3155;49.940;8.450;2023-03-22T04:52:03;1.10;;;1.10;;
6243;SDS011;3155;49.940;8.450;2023-03-22T04:54:33;1.52;;;1.00;;
6243;SDS011;3155;49.940;8.450;2023-03-22T04:57:00;0.77;;;0.77;;
6243;SDS011;3155;49.940;8.450;2023-03-22T04:59:27;0.80;;;0.80;;
6243;SDS011;3155;49.940;8.450;2023-03-22T05:01:53;1.20;;;1.10;;
6243;SDS011;3155;49.940;8.450;2023-03-22T05:04:21;1.00;;;1.00;;
6243;SDS011;3155;49.940;8.450;2023-03-22T05:06:48;0.98;;;0.98;;
6243;SDS011;3155;49.940;8.450;2023-03-22T05:09:18;0.80;;;0.80;;
6243;SDS011;3155;49.940;8.450;2023-03-22T05:11:51;0.63;;;0.63;;
6243;SDS011;3155;49.940;8.450;2023-03-22T05:14:18;1.08;;;1.08;;
6243;SDS011;3155;49.940;8.450;2023-03-22T05:16:45;0.88;;;0.88;;
6243;SDS011;3155;49.940;8.450;2023-03-22T05:19:12;1.13;;;0.75;;
6243;SDS011;3155;49.940;8.450;2023-03-22T05:21:39;0.75;;;0.75;;
6243;SDS011;3155;49.940;8.450;2023-03-22T05:24:09;0.65;;;0.65;;
6243;SDS011;3155;49.940;8.450;2023-03-22T05:26:36;1.13;;;1.08;;
6243;SDS011;3155;49.940;8.450;2023-03-22T05:29:08;0.77;;;0.77;;
6243;SDS011;3155;49.940;8.450;2023-03-22T05:31:36;3.20;;;1.67;;
6243;SDS011;3155;49.940;8.450;2023-03-22T05:34:03;1.17;;;1.17;;
6243;SDS011;3155;49.940;8.450;2023-03-22T05:36:33;1.15;;;1.00;;
6243;SDS011;3155;49.940;8.450;2023-03-22T05:39:03;1.10;;;1.10;;
6243;SDS011;3155;49.940;8.450;2023-03-22T05:41:30;0.98;;;0.98;;
6243;SDS011;3155;49.940;8.450;2023-03-22T05:44:01;1.38;;;1.33;;
6243;SDS011;3155;49.940;8.450;2023-03-22T05:46:28;1.40;;;1.30;;
6243;SDS011;3155;49.940;8.450;2023-03-22T05:48:59;1.10;;;0.90;;
6243;SDS011;3155;49.940;8.450;2023-03-22T05:51:26;0.70;;;0.70;;
6243;SDS011;3155;49.940;8.450;2023-03-22T05:53:56;0.82;;;0.82;;
6243;SDS011;3155;49.940;8.450;2023-03-22T05:56:31;3.65;;;1.90;;
6243;SDS011;3155;49.940;8.450;2023-03-22T05:58:58;1.52;;;0.90;;
6243;SDS011;3155;49.940;8.450;2023-03-22T06:01:25;2.05;;;1.52;;
6243;SDS011;3155;49.940;8.450;2023-03-22T06:03:59;1.00;;;1.00;;
6243;SDS011;3155;49.940;8.450;2023-03-22T06:06:27;1.73;;;1.17;;
6243;SDS011;3155;49.940;8.450;2023-03-22T06:08:54;1.45;;;1.35;;
6243;SDS011;3155;49.940;8.450;2023-03-22T06:11:44;0.70;;;0.70;;
6243;SDS011;3155;49.940;8.450;2023-03-22T06:14:14;2.22;;;1.52;;
6243;SDS011;3155;49.940;8.450;2023-03-22T06:16:41;2.00;;;0.80;;
6243;SDS011;3155;49.940;8.450;2023-03-22T06:19:08;1.20;;;0.93;;
6243;SDS011;3155;49.940;8.450;2023-03-22T06:21:35;0.90;;;0.90;;
6243;SDS011;3155;49.940;8.450;2023-03-22T06:24:02;1.20;;;1.10;;
6243;SDS011;3155;49.940;8.450;2023-03-22T06:26:35;1.55;;;0.60;;
6243;SDS011;3155;49.940;8.450;2023-03-22T06:29:03;1.38;;;1.27;;
6243;SDS011;3155;49.940;8.450;2023-03-22T06:31:33;0.50;;;0.50;;
6243;SDS011;3155;49.940;8.450;2023-03-22T06:34:00;0.95;;;0.95;;
6243;SDS011;3155;49.940;8.450;2023-03-22T06:36:27;0.50;;;0.50;;
6243;SDS011;3155;49.940;8.450;2023-03-22T06:38:55;0.65;;;0.65;;
6243;SDS011;3155;49.940;8.450;2023-03-22T06:41:25;0.65;;;0.65;;
6243;SDS011;3155;49.940;8.450;2023-03-22T06:44:01;1.38;;;1.27;;
6243;SDS011;3155;49.940;8.450;2023-03-22T06:46:29;1.80;;;0.70;;
6243;SDS011;3155;49.940;8.450;2023-03-22T06:49:01;0.70;;;0.70;;
6243;SDS011;3155;49.940;8.450;2023-03-22T06:51:28;2.00;;;0.98;;
6243;SDS011;3155;49.940;8.450;2023-03-22T06:53:56;1.02;;;0.98;;
6243;SDS011;3155;49.940;8.450;2023-03-22T06:56:27;1.70;;;0.70;;
6243;SDS011;3155;49.940;8.450;2023-03-22T06:58:54;1.25;;;1.02;;
6243;SDS011;3155;49.940;8.450;2023-03-22T07:01:25;0.73;;;0.73;;
6243;SDS011;3155;49.940;8.450;2023-03-22T07:03:53;1.13;;;1.02;;
6243;SDS011;3155;49.940;8.450;2023-03-22T07:06:20;1.15;;;0.88;;
6243;SDS011;3155;49.940;8.450;2023-03-22T07:08:47;1.20;;;1.10;;
6243;SDS011;3155;49.940;8.450;2023-03-22T07:11:17;1.00;;;0.80;;
6243;SDS011;3155;49.940;8.450;2023-03-22T07:13:44;0.77;;;0.77;;
6243;SDS011;3155;49.940;8.450;2023-03-22T07:16:13;1.00;;;1.00;;
6243;SDS011;3155;49.940;8.450;2023-03-22T07:18:40;1.40;;;1.00;;
6243;SDS011;3155;49.940;8.450;2023-03-22T07:21:07;0.70;;;0.70;;
6243;SDS011;3155;49.940;8.450;2023-03-22T07:23:34;1.95;;;1.02;;
6243;SDS011;3155;49.940;8.450;2023-03-22T07:26:02;1.10;;;1.10;;
6243;SDS011;3155;49.940;8.450;2023-03-22T07:28:35;1.30;;;1.10;;
6243;SDS011;3155;49.940;8.450;2023-03-22T07:31:03;0.90;;;0.90;;
6243;SDS011;3155;49.940;8.450;2023-03-22T07:33:37;0.90;;;0.90;;
6243;SDS011;3155;49.940;8.450;2023-03-22T07:36:06;0.90;;;0.90;;
6243;SDS011;3155;49.940;8.450;2023-03-22T07:38:34;1.40;;;1.30;;
6243;SDS011;3155;49.940;8.450;2023-03-22T07:41:02;0.90;;;0.90;;
6243;SDS011;3155;49.940;8.450;2023-03-22T07:43:29;0.75;;;0.75;;
6243;SDS011;3155;49.940;8.450;2023-03-22T07:45:56;1.15;;;1.13;;
6243;SDS011;3155;49.940;8.450;2023-03-22T07:48:23;1.20;;;1.15;;
6243;SDS011;3155;49.940;8.450;2023-03-22T07:50:53;1.40;;;0.90;;
6243;SDS011;3155;49.940;8.450;2023-03-22T07:53:21;0.70;;;0.70;;
6243;SDS011;3155;49.940;8.450;2023-03-22T07:55:48;2.38;;;0.90;;
6243;SDS011;3155;49.940;8.450;2023-03-22T07:58:15;2.40;;;1.23;;
6243;SDS011;3155;49.940;8.450;2023-03-22T08:00:42;0.68;;;0.68;;
6243;SDS011;3155;49.940;8.450;2023-03-22T08:03:10;0.80;;;0.52;;
6243;SDS011;3155;49.940;8.450;2023-03-22T08:05:39;0.70;;;0.70;;
6243;SDS011;3155;49.940;8.450;2023-03-22T08:08:09;1.10;;;1.10;;
6243;SDS011;3155;49.940;8.450;2023-03-22T08:10:41;0.95;;;0.85;;
6243;SDS011;3155;49.940;8.450;2023-03-22T08:13:08;2.50;;;0.77;;
6243;SDS011;3155;49.940;8.450;2023-03-22T08:15:38;1.27;;;1.17;;
6243;SDS011;3155;49.940;8.450;2023-03-22T08:18:05;0.70;;;0.70;;
6243;SDS011;3155;49.940;8.450;2023-03-22T08:20:33;0.90;;;0.50;;
6243;SDS011;3155;49.940;8.450;2023-03-22T08:23:03;0.93;;;0.93;;
6243;SDS011;3155;49.940;8.450;2023-03-22T08:25:30;0.68;;;0.68;;
6243;SDS011;3155;49.940;8.450;2023-03-22T08:28:01;1.40;;;0.95;;
6243;SDS011;3155;49.940;8.450;2023-03-22T08:30:28;0.80;;;0.80;;
6243;SDS011;3155;49.940;8.450;2023-03-22T08:32:55;0.70;;;0.70;;
6243;SDS011;3155;49.940;8.450;2023-03-22T08:35:22;0.80;;;0.80;;
6243;SDS011;3155;49.940;8.450;2023-03-22T08:37:53;0.52;;;0.52;;
6243;SDS011;3155;49.940;8.450;2023-03-22T08:40:24;0.98;;;0.82;;
6243;SDS011;3155;49.940;8.450;2023-03-22T08:42:53;0.50;;;0.50;;
6243;SDS011;3155;49.940;8.450;2023-03-22T08:45:20;0.98;;;0.98;;
6243;SDS011;3155;49.940;8.450;2023-03-22T08:47:47;0.80;;;0.80;;
6243;SDS011;3155;49.940;8.450;2023-03-22T08:50:15;0.60;;;0.60;;
6243;SDS011;3155;49.940;8.450;2023-03-22T08:52:45;1.40;;;0.83;;
6243;SDS011;3155;49.940;8.450;2023-03-22T08:55:12;0.40;;;0.40;;
6243;SDS011;3155;49.940;8.450;2023-03-22T08:57:42;0.80;;;0.80;;
6243;SDS011;3155;49.940;8.450;2023-03-22T09:00:11;3.00;;;0.82;;
6243;SDS011;3155;49.940;8.450;2023-03-22T09:02:38;2.50;;;0.90;;
6243;SDS011;3155;49.940;8.450;2023-03-22T09:05:06;0.90;;;0.90;;
6243;SDS011;3155;49.940;8.450;2023-03-22T09:07:36;0.60;;;0.60;;
6243;SDS011;3155;49.940;8.450;2023-03-22T09:10:07;0.30;;;0.30;;
6243;SDS011;3155;49.940;8.450;2023-03-22T09:12:34;0.57;;;0.57;;
6243;SDS011;3155;49.940;8.450;2023-03-22T09:15:04;0.30;;;0.30;;
6243;SDS011;3155;49.940;8.450;2023-03-22T09:17:32;0.40;;;0.40;;
6243;SDS011;3155;49.940;8.450;2023-03-22T09:19:59;0.40;;;0.40;;
6243;SDS011;3155;49.940;8.450;2023-03-22T09:22:37;0.30;;;0.30;;
6243;SDS011;3155;49.940;8.450;2023-03-22T09:25:05;0.23;;;0.23;;
6243;SDS011;3155;49.940;8.450;2023-03-22T09:27:33;0.30;;;0.30;;
6243;SDS011;3155;49.940;8.450;2023-03-22T09:30:00;0.40;;;0.20;;
6243;SDS011;3155;49.940;8.450;2023-03-22T09:32:27;0.22;;;0.22;;
6243;SDS011;3155;49.940;8.450;2023-03-22T09:34:54;2.20;;;0.33;;
6243;SDS011;3155;49.940;8.450;2023-03-22T09:37:21;0.40;;;0.30;;
6243;SDS011;3155;49.940;8.450;2023-03-22T09:39:55;0.30;;;0.30;;
6243;SDS011;3155;49.940;8.450;2023-03-22T09:42:35;0.20;;;0.20;;
6243;SDS011;3155;49.940;8.450;2023-03-22T09:45:10;0.25;;;0.25;;
6243;SDS011;3155;49.940;8.450;2023-03-22T09:47:43;0.27;;;0.27;;
6243;SDS011;3155;49.940;8.450;2023-03-22T09:50:13;0.30;;;0.30;;
6243;SDS011;3155;49.940;8.450;2023-03-22T09:52:41;0.40;;;0.40;;
6243;SDS011;3155;49.940;8.450;2023-03-22T09:55:16;0.22;;;0.22;;
6243;SDS011;3155;49.940;8.450;2023-03-22T09:58:07;0.40;;;0.40;;
6243;SDS011;3155;49.940;8.450;2023-03-22T10:00:39;0.30;;;0.30;;
6243;SDS011;3155;49.940;8.450;2023-03-22T10:10:48;0.20;;;0.20;;
6243;SDS011;3155;49.940;8.450;2023-03-22T10:13:31;0.40;;;0.40;;
6243;SDS011;3155;49.940;8.450;2023-03-22T10:16:04;0.20;;;0.20;;
6243;SDS011;3155;49.940;8.450;2023-03-22T10:18:37;0.30;;;0.30;;
6243;SDS011;3155;49.940;8.450;2023-03-22T10:21:05;2.80;;;0.40;;
6243;SDS011;3155;49.940;8.450;2023-03-22T10:23:46;0.50;;;0.50;;
6243;SDS011;3155;49.940;8.450;2023-03-22T10:26:19;0.20;;;0.20;;
6243;SDS011;3155;49.940;8.450;2023-03-22T10:28:54;0.20;;;0.20;;
6243;SDS011;3155;49.940;8.450;2023-03-22T10:31:29;0.30;;;0.30;;
6243;SDS011;3155;49.940;8.450;2023-03-22T10:33:58;0.20;;;0.20;;
6243;SDS011;3155;49.940;8.450;2023-03-22T10:36:30;1.55;;;0.20;;
6243;SDS011;3155;49.940;8.450;2023-03-22T10:39:11;0.20;;;0.20;;
6243;SDS011;3155;49.940;8.450;2023-03-22T10:41:44;0.40;;;0.40;;
6243;SDS011;3155;49.940;8.450;2023-03-22T10:44:13;0.17;;;0.17;;
6243;SDS011;3155;49.940;8.450;2023-03-22T10:46:45;0.20;;;0.20;;
6243;SDS011;3155;49.940;8.450;2023-03-22T10:49:35;0.20;;;0.20;;
6243;SDS011;3155;49.940;8.450;2023-03-22T10:52:44;0.37;;;0.37;;
6243;SDS011;3155;49.940;8.450;2023-03-22T10:54:51;0.50;;;0.50;;
6243;SDS011;3155;49.940;8.450;2023-03-22T10:57:18;0.50;;;0.20;;
6243;SDS011;3155;49.940;8.450;2023-03-22T10:59:46;0.20;;;0.20;;
6243;SDS011;3155;49.940;8.450;2023-03-22T11:02:15;0.30;;;0.30;;
6243;SDS011;3155;49.940;8.450;2023-03-22T11:04:47;1.00;;;0.40;;
6243;SDS011;3155;49.940;8.450;2023-03-22T11:07:15;0.30;;;0.30;;
6243;SDS011;3155;49.940;8.450;2023-03-22T11:10:18;0.20;;;0.20;;
6243;SDS011;3155;49.940;8.450;2023-03-22T11:12:47;0.20;;;0.20;;
6243;SDS011;3155;49.940;8.450;2023-03-22T11:15:24;0.15;;;0.15;;
6243;SDS011;3155;49.940;8.450;2023-03-22T11:17:53;0.20;;;0.20;;
6243;SDS011;3155;49.940;8.450;2023-03-22T11:20:25;0.40;;;0.40;;
6243;SDS011;3155;49.940;8.450;2023-03-22T11:22:55;1.60;;;0.40;;
6243;SDS011;3155;49.940;8.450;2023-03-22T11:25:27;0.30;;;0.30;;
6243;SDS011;3155;49.940;8.450;2023-03-22T11:30:31;0.30;;;0.30;;
6243;SDS011;3155;49.940;8.450;2023-03-22T11:35:36;0.30;;;0.30;;
6243;SDS011;3155;49.940;8.450;2023-03-22T11:38:04;0.40;;;0.40;;
6243;SDS011;3155;49.940;8.450;2023-03-22T11:40:32;0.20;;;0.20;;
6243;SDS011;3155;49.940;8.450;2023-03-22T11:45:40;0.20;;;0.20;;
6243;SDS011;3155;49.940;8.450;2023-03-22T11:48:17;0.20;;;0.20;;
6243;SDS011;3155;49.940;8.450;2023-03-22T11:50:47;0.30;;;0.30;;
6243;SDS011;3155;49.940;8.450;2023-03-22T11:53:16;0.23;;;0.23;;
6243;SDS011;3155;49.940;8.450;2023-03-22T11:55:44;0.35;;;0.28;;
6243;SDS011;3155;49.940;8.450;2023-03-22T11:58:21;0.30;;;0.30;;
6243;SDS011;3155;49.940;8.450;2023-03-22T12:00:49;0.40;;;0.40;;
6243;SDS011;3155;49.940;8.450;2023-03-22T12:03:18;0.40;;;0.40;;
6243;SDS011;3155;49.940;8.450;2023-03-22T12:05:51;0.23;;;0.20;;
6243;SDS011;3155;49.940;8.450;2023-03-22T12:08:29;0.30;;;0.30;;
6243;SDS011;3155;49.940;8.450;2023-03-22T12:11:00;0.20;;;0.20;;
6243;SDS011;3155;49.940;8.450;2023-03-22T12:16:03;0.30;;;0.30;;
6243;SDS011;3155;49.940;8.450;2023-03-22T12:18:33;0.95;;;0.45;;
6243;SDS011;3155;49.940;8.450;2023-03-22T12:21:02;0.30;;;0.30;;
6243;SDS011;3155;49.940;8.450;2023-03-22T12:23:30;0.30;;;0.30;;
6243;SDS011;3155;49.940;8.450;2023-03-22T12:26:05;0.30;;;0.30;;
6243;SDS011;3155;49.940;8.450;2023-03-22T12:31:03;0.25;;;0.25;;
6243;SDS011;3155;49.940;8.450;2023-03-22T12:33:38;0.20;;;0.20;;
6243;SDS011;3155;49.940;8.450;2023-03-22T12:36:09;0.80;;;0.30;;
6243;SDS011;3155;49.940;8.450;2023-03-22T12:38:51;0.90;;;0.40;;
6243;SDS011;3155;49.940;8.450;2023-03-22T12:41:33;0.20;;;0.20;;
6243;SDS011;3155;49.940;8.450;2023-03-22T12:44:08;0.20;;;0.20;;
6243;SDS011;3155;49.940;8.450;2023-03-22T12:46:48;0.20;;;0.20;;
6243;SDS011;3155;49.940;8.450;2023-03-22T12:51:46;0.38;;;0.38;;
6243;SDS011;3155;49.940;8.450;2023-03-22T12:54:14;0.22;;;0.22;;
6243;SDS011;3155;49.940;8.450;2023-03-22T12:56:44;0.20;;;0.20;;
6243;SDS011;3155;49.940;8.450;2023-03-22T12:59:25;4.10;;;0.30;;
6243;SDS011;3155;49.940;8.450;2023-03-22T13:01:58;0.20;;;0.20;;
6243;SDS011;3155;49.940;8.450;2023-03-22T13:04:28;0.15;;;0.15;;
6243;SDS011;3155;49.940;8.450;2023-03-22T13:07:32;0.25;;;0.25;;
6243;SDS011;3155;49.940;8.450;2023-03-22T13:09:58;1.20;;;0.50;;
6243;SDS011;3155;49.940;8.450;2023-03-22T13:12:29;0.20;;;0.20;;
6243;SDS011;3155;49.940;8.450;2023-03-22T13:15:40;0.80;;;0.50;;
6243;SDS011;3155;49.940;8.450;2023-03-22T13:17:56;0.35;;;0.35;;
6243;SDS011;3155;49.940;8.450;2023-03-22T13:20:25;0.20;;;0.20;;
6243;SDS011;3155;49.940;8.450;2023-03-22T13:25:33;0.25;;;0.25;;
6243;SDS011;3155;49.940;8.450;2023-03-22T13:28:01;0.80;;;0.30;;
6243;SDS011;3155;49.940;8.450;2023-03-22T13:30:34;0.50;;;0.40;;
6243;SDS011;3155;49.940;8.450;2023-03-22T13:38:28;0.50;;;0.30;;
6243;SDS011;3155;49.940;8.450;2023-03-22T13:46:10;0.30;;;0.30;;
6243;SDS011;3155;49.940;8.450;2023-03-22T13:48:40;0.30;;;0.30;;
6243;SDS011;3155;49.940;8.450;2023-03-22T13:51:09;0.30;;;0.30;;
6243;SDS011;3155;49.940;8.450;2023-03-22T13:53:37;0.30;;;0.30;;
6243;SDS011;3155;49.940;8.450;2023-03-22T13:56:09;0.40;;;0.40;;
6243;SDS011;3155;49.940;8.450;2023-03-22T14:01:32;0.30;;;0.30;;
6243;SDS011;3155;49.940;8.450;2023-03-22T14:04:10;2.60;;;0.60;;
6243;SDS011;3155;49.940;8.450;2023-03-22T14:06:46;0.20;;;0.20;;
6243;SDS011;3155;49.940;8.450;2023-03-22T14:09:22;0.20;;;0.20;;
6243;SDS011;3155;49.940;8.450;2023-03-22T14:14:59;0.40;;;0.40;;
6243;SDS011;3155;49.940;8.450;2023-03-22T14:17:40;0.30;;;0.30;;
6243;SDS011;3155;49.940;8.450;2023-03-22T14:20:16;0.30;;;0.30;;
6243;SDS011;3155;49.940;8.450;2023-03-22T14:23:02;0.40;;;0.40;;
6243;SDS011;3155;49.940;8.450;2023-03-22T14:25:48;0.30;;;0.30;;
6243;SDS011;3155;49.940;8.450;2023-03-22T14:28:30;0.30;;;0.30;;
6243;SDS011;3155;49.940;8.450;2023-03-22T14:31:16;0.40;;;0.40;;
6243;SDS011;3155;49.940;8.450;2023-03-22T14:33:54;1.85;;;0.32;;
6243;SDS011;3155;49.940;8.450;2023-03-22T14:36:26;0.20;;;0.20;;
6243;SDS011;3155;49.940;8.450;2023-03-22T14:38:59;0.20;;;0.20;;
6243;SDS011;3155;49.940;8.450;2023-03-22T14:41:34;0.30;;;0.30;;
6243;SDS011;3155;49.940;8.450;2023-03-22T14:44:01;0.23;;;0.23;;
6243;SDS011;3155;49.940;8.450;2023-03-22T14:46:38;0.20;;;0.20;;
6243;SDS011;3155;49.940;8.450;2023-03-22T14:49:12;0.40;;;0.40;;
6243;SDS011;3155;49.940;8.450;2023-03-22T14:51:40;0.30;;;0.30;;
6243;SDS011;3155;49.940;8.450;2023-03-22T14:54:18;0.38;;;0.38;;
6243;SDS011;3155;49.940;8.450;2023-03-22T14:56:47;0.38;;;0.38;;
6243;SDS011;3155;49.940;8.450;2023-03-22T14:59:17;0.20;;;0.20;;
6243;SDS011;3155;49.940;8.450;2023-03-22T15:01:49;2.40;;;0.50;;
6243;SDS011;3155;49.940;8.450;2023-03-22T15:04:18;0.20;;;0.20;;
6243;SDS011;3155;49.940;8.450;2023-03-22T15:06:46;0.30;;;0.30;;
6243;SDS011;3155;49.940;8.450;2023-03-22T15:09:18;0.40;;;0.30;;
6243;SDS011;3155;49.940;8.450;2023-03-22T15:11:45;0.22;;;0.22;;
6243;SDS011;3155;49.940;8.450;2023-03-22T15:14:13;0.20;;;0.20;;
6243;SDS011;3155;49.940;8.450;2023-03-22T15:16:40;0.60;;;0.30;;
6243;SDS011;3155;49.940;8.450;2023-03-22T15:19:11;0.30;;;0.30;;
6243;SDS011;3155;49.940;8.450;2023-03-22T15:21:38;0.38;;;0.38;;
6243;SDS011;3155;49.940;8.450;2023-03-22T15:24:12;4.80;;;0.40;;
6243;SDS011;3155;49.940;8.450;2023-03-22T15:26:48;0.22;;;0.22;;
6243;SDS011;3155;49.940;8.450;2023-03-22T15:29:15;0.20;;;0.20;;
6243;SDS011;3155;49.940;8.450;2023-03-22T15:31:45;0.60;;;0.60;;
6243;SDS011;3155;49.940;8.450;2023-03-22T15:34:17;0.35;;;0.25;;
6243;SDS011;3155;49.940;8.450;2023-03-22T15:36:44;0.30;;;0.30;;
6243;SDS011;3155;49.940;8.450;2023-03-22T15:41:51;0.32;;;0.32;;
6243;SDS011;3155;49.940;8.450;2023-03-22T15:44:27;0.20;;;0.20;;
6243;SDS011;3155;49.940;8.450;2023-03-22T15:49:27;0.20;;;0.20;;
6243;SDS011;3155;49.940;8.450;2023-03-22T15:51:56;0.70;;;0.63;;
6243;SDS011;3155;49.940;8.450;2023-03-22T15:54:29;1.50;;;0.20;;
6243;SDS011;3155;49.940;8.450;2023-03-22T15:57:06;0.40;;;0.40;;
6243;SDS011;3155;49.940;8.450;2023-03-22T15:59:32;0.30;;;0.30;;
6243;SDS011;3155;49.940;8.450;2023-03-22T16:01:59;0.30;;;0.30;;
6243;SDS011;3155;49.940;8.450;2023-03-22T16:04:33;0.47;;;0.47;;
6243;SDS011;3155;49.940;8.450;2023-03-22T16:06:59;0.40;;;0.40;;
6243;SDS011;3155;49.940;8.450;2023-03-22T16:09:26;0.20;;;0.20;;
6243;SDS011;3155;49.940;8.450;2023-03-22T16:11:52;0.70;;;0.47;;
6243;SDS011;3155;49.940;8.450;2023-03-22T16:14:21;0.28;;;0.28;;
6243;SDS011;3155;49.940;8.450;2023-03-22T16:16:47;0.20;;;0.20;;
6243;SDS011;3155;49.940;8.450;2023-03-22T16:19:13;0.30;;;0.30;;
6243;SDS011;3155;49.940;8.450;2023-03-22T16:21:40;0.30;;;0.30;;
6243;SDS011;3155;49.940;8.450;2023-03-22T16:24:06;0.45;;;0.45;;
6243;SDS011;3155;49.940;8.450;2023-03-22T16:26:32;0.40;;;0.40;;
6243;SDS011;3155;49.940;8.450;2023-03-22T16:28:58;0.40;;;0.35;;
6243;SDS011;3155;49.940;8.450;2023-03-22T16:31:25;0.20;;;0.20;;
6243;SDS011;3155;49.940;8.450;2023-03-22T16:33:51;0.60;;;0.60;;
6243;SDS011;3155;49.940;8.450;2023-03-22T16:36:18;0.40;;;0.40;;
6243;SDS011;3155;49.940;8.450;2023-03-22T16:38:45;0.68;;;0.68;;
6243;SDS011;3155;49.940;8.450;2023-03-22T16:41:15;0.30;;;0.30;;
6243;SDS011;3155;49.940;8.450;2023-03-22T16:43:55;0.40;;;0.40;;
6243;SDS011;3155;49.940;8.450;2023-03-22T16:46:22;0.30;;;0.30;;
6243;SDS011;3155;49.940;8.450;2023-03-22T16:48:48;0.43;;;0.43;;
6243;SDS011;3155;49.940;8.450;2023-03-22T16:51:17;0.28;;;0.28;;
6243;SDS011;3155;49.940;8.450;2023-03-22T16:53:43;0.30;;;0.30;;
6243;SDS011;3155;49.940;8.450;2023-03-22T16:56:16;0.30;;;0.30;;
6243;SDS011;3155;49.940;8.450;2023-03-22T16:58:43;0.30;;;0.30;;